Terminal Aerodrome Forecast
Issued by NWS New Orleans/Baton Rouge, LA

Home | Current Version | Previous Version | Text Only | Print | Product List | Glossary On
Versions: 1 2 3 4 5 6 7 8 9 10 11 12 13 14
751
FTUS44 KLIX 140522
TAFBTR
TAF
KBTR 140522Z 1406/1506 09005KT P6SM SCT250
     FM141400 12007KT P6SM SCT250
     FM141800 15009KT P6SM BKN080
     FM150300 14008KT P6SM OVC025=

USA.gov is the U.S. government's official web portal to all federal, state and local government web resources and services.